Time;durP1;ratioP1;P1;durP2;ratioP2;P2;SDS_P1;SDS_P2;PMS_P1;PMS_P2;Temp;Humidity;BMP_temperature;BMP_pressure;BME280_temperature;BME280_humidity;BME280_pressure;Samples;Min_cycle;Max_cycle;Signal;HPM_P1;HPM_P2
2021/08/03 00:01:05;;;;;;;;;5.00;3.25;;;;;-143.39;100.00;63593.47;4887111;29;45450;-82
2021/08/03 00:03:38;;;;;;;;;7.00;5.00;;;;;-143.39;100.00;63593.47;4869972;29;45615;-82
2021/08/03 00:06:09;;;;;;;;;4.00;3.00;;;;;-143.39;100.00;63593.47;4888957;29;45243;-82
2021/08/03 00:08:38;;;;;;;;;3.50;3.50;;;;;-143.39;100.00;63593.47;4871152;29;45241;-82
2021/08/03 00:11:05;;;;;;;;;6.75;5.50;;;;;-143.39;100.00;63593.47;4901764;29;45644;-82
2021/08/03 00:13:33;;;;;;;;;6.25;5.00;;;;;-143.39;100.00;63593.47;4898344;29;45436;-82
2021/08/03 00:16:03;;;;;;;;;6.00;4.00;;;;;-143.39;100.00;63593.47;4885694;29;45264;-82
2021/08/03 00:18:29;;;;;;;;;6.00;4.00;;;;;-143.39;100.00;63593.47;4886716;29;45592;-82
2021/08/03 00:20:56;;;;;;;;;7.50;4.00;;;;;-143.39;100.00;63593.47;4886343;29;46404;-82
2021/08/03 00:23:22;;;;;;;;;6.00;4.50;;;;;-143.39;100.00;63593.47;4885728;29;45475;-82
2021/08/03 00:25:51;;;;;;;;;4.25;3.25;;;;;-143.39;100.00;63593.47;4869161;29;45261;-82
2021/08/03 00:28:16;;;;;;;;;4.00;4.00;;;;;-143.39;100.00;63593.47;4900319;29;45924;-82
2021/08/03 00:30:42;;;;;;;;;7.00;5.25;;;;;-143.39;100.00;63593.47;4887057;29;45377;-82
2021/08/03 00:33:08;;;;;;;;;5.00;5.00;;;;;-143.39;100.00;63593.47;4885035;29;45422;-82
2021/08/03 00:35:34;;;;;;;;;5.25;5.00;;;;;-143.39;100.00;63593.47;4868730;29;45398;-82
2021/08/03 00:38:00;;;;;;;;;5.00;3.50;;;;;-143.39;100.00;63593.47;4884254;29;45487;-82
2021/08/03 00:40:30;;;;;;;;;5.50;4.00;;;;;-143.39;100.00;63593.47;4883904;29;46531;-82
2021/08/03 00:42:55;;;;;;;;;4.50;4.00;;;;;-143.39;100.00;63593.47;4885528;29;45250;-82
2021/08/03 00:45:21;;;;;;;;;6.00;6.00;;;;;-143.39;100.00;63593.47;4868525;29;45879;-82
2021/08/03 00:47:47;;;;;;;;;7.50;5.00;;;;;-143.39;100.00;63593.47;4885352;29;45233;-82
2021/08/03 00:50:13;;;;;;;;;5.00;4.75;;;;;-143.39;100.00;63593.47;4886034;29;45559;-82
2021/08/03 00:52:40;;;;;;;;;5.00;5.00;;;;;-143.39;100.00;63593.47;4886814;29;45437;-82
2021/08/03 00:55:06;;;;;;;;;6.75;6.00;;;;;-143.39;100.00;63593.47;4884302;29;45437;-82
2021/08/03 00:57:32;;;;;;;;;5.00;4.50;;;;;-143.39;100.00;63593.47;4893716;29;45197;-82
2021/08/03 00:59:57;;;;;;;;;7.00;5.50;;;;;-143.39;100.00;63593.47;4897771;29;45983;-82
2021/08/03 01:02:23;;;;;;;;;6.50;6.25;;;;;-143.39;100.00;63593.47;4868025;29;45178;-82
2021/08/03 01:04:48;;;;;;;;;5.75;4.75;;;;;-143.39;100.00;63593.47;4885060;29;45528;-82
2021/08/03 01:07:34;;;;;;;;;6.00;5.25;;;;;-143.39;100.00;63593.47;4885062;29;45324;-81
2021/08/03 01:10:23;;;;;;;;;8.50;5.00;;;;;-143.39;100.00;63593.47;4891063;29;45261;-82
2021/08/03 01:13:00;;;;;;;;;7.00;6.00;;;;;-143.39;100.00;63593.47;4901211;29;45344;-82
2021/08/03 01:15:44;;;;;;;;;6.00;6.00;;;;;-143.39;100.00;63593.47;4886436;29;45521;-82
2021/08/03 01:18:19;;;;;;;;;10.00;6.00;;;;;-143.39;100.00;63593.47;4899377;29;46094;-82
2021/08/03 01:21:03;;;;;;;;;7.25;6.50;;;;;-143.39;100.00;63593.47;4846378;29;1150898;-81
2021/08/03 01:23:43;;;;;;;;;7.00;6.00;;;;;-143.39;100.00;63593.47;4894995;29;45639;-81
2021/08/03 01:26:24;;;;;;;;;8.00;7.00;;;;;-143.39;100.00;63593.47;4885776;29;45324;-82
2021/08/03 01:28:53;;;;;;;;;9.75;7.75;;;;;-143.39;100.00;63593.47;4885549;29;45407;-83
2021/08/03 01:31:26;;;;;;;;;6.25;6.25;;;;;-143.39;100.00;63593.47;4885716;29;45260;-84
2021/08/03 01:34:08;;;;;;;;;9.25;7.75;;;;;-143.39;100.00;63593.47;4868573;29;45353;-83
2021/08/03 01:36:35;;;;;;;;;15.25;8.25;;;;;-143.39;100.00;63593.47;4886799;29;45328;-83
2021/08/03 01:39:02;;;;;;;;;9.50;8.00;;;;;-143.39;100.00;63593.47;4886361;29;45317;-83
2021/08/03 01:41:29;;;;;;;;;11.75;8.00;;;;;-143.39;100.00;63593.47;4885534;29;45478;-81
2021/08/03 01:43:58;;;;;;;;;7.75;7.00;;;;;-143.39;100.00;63593.47;4885641;29;45516;-84
2021/08/03 01:46:25;;;;;;;;;8.75;8.00;;;;;-143.39;100.00;63593.47;4885863;29;45346;-83
2021/08/03 01:48:53;;;;;;;;;12.00;6.50;;;;;-143.39;100.00;63593.47;4868337;29;46931;-83
2021/08/03 01:51:20;;;;;;;;;9.50;8.00;;;;;-143.39;100.00;63593.47;4883571;29;47196;-84
2021/08/03 01:53:48;;;;;;;;;8.75;8.75;;;;;-143.39;100.00;63593.47;4899822;29;45204;-83
2021/08/03 01:56:15;;;;;;;;;9.50;7.50;;;;;-143.39;100.00;63593.47;4893347;29;45441;-83
2021/08/03 01:58:42;;;;;;;;;6.50;6.50;;;;;-143.39;100.00;63593.47;4885496;29;45467;-83
2021/08/03 02:01:10;;;;;;;;;8.75;6.25;;;;;-143.39;100.00;63593.47;4886349;29;46246;-83
2021/08/03 02:03:37;;;;;;;;;8.00;6.50;;;;;-143.39;100.00;63593.47;4868448;29;45313;-83
2021/08/03 02:06:05;;;;;;;;;8.00;6.50;;;;;-143.39;100.00;63593.47;4899787;29;45446;-83
2021/08/03 02:08:35;;;;;;;;;8.50;6.75;;;;;-143.39;100.00;63593.47;4884964;29;45475;-83
2021/08/03 02:11:01;;;;;;;;;7.50;7.00;;;;;-143.39;100.00;63593.47;4882352;29;47314;-83
2021/08/03 02:13:26;;;;;;;;;7.00;6.00;;;;;-143.39;100.00;63593.47;4880208;29;45408;-83
2021/08/03 02:15:53;;;;;;;;;8.75;8.75;;;;;-143.39;100.00;63593.47;4885240;29;45398;-83
2021/08/03 02:18:18;;;;;;;;;13.25;10.25;;;;;-143.39;100.00;63593.47;4884958;29;45420;-83
2021/08/03 02:20:47;;;;;;;;;10.00;9.50;;;;;-143.39;100.00;63593.47;4867980;29;47961;-83
2021/08/03 02:23:13;;;;;;;;;10.75;8.75;;;;;-143.39;100.00;63593.47;4885857;29;45222;-83
2021/08/03 02:25:40;;;;;;;;;9.25;9.00;;;;;-143.39;100.00;63593.47;4885960;29;45281;-83
2021/08/03 02:28:06;;;;;;;;;9.25;8.00;;;;;-143.39;100.00;63593.47;4867950;29;45477;-83
2021/08/03 02:30:32;;;;;;;;;7.75;6.50;;;;;-143.39;100.00;63593.47;4884890;29;46362;-83
2021/08/03 02:33:04;;;;;;;;;7.00;6.75;;;;;-143.39;100.00;63593.47;4884898;29;45527;-83
2021/08/03 02:35:39;;;;;;;;;7.50;7.50;;;;;-143.39;100.00;63593.47;4867969;29;45278;-83
2021/08/03 02:38:09;;;;;;;;;8.00;5.50;;;;;-143.39;100.00;63593.47;4884704;29;45234;-83
2021/08/03 02:40:37;;;;;;;;;6.25;6.25;;;;;-143.39;100.00;63593.47;4883408;29;48838;-83
2021/08/03 02:43:03;;;;;;;;;6.75;5.50;;;;;-143.39;100.00;63593.47;4899321;29;45524;-83
2021/08/03 02:45:29;;;;;;;;;6.50;6.00;;;;;-143.39;100.00;63593.47;4885521;29;45226;-83
2021/08/03 02:47:59;;;;;;;;;7.50;6.00;;;;;-143.39;100.00;63593.47;4898716;29;45470;-83
2021/08/03 02:50:26;;;;;;;;;6.25;5.50;;;;;-143.39;100.00;63593.47;4895699;29;46189;-83
2021/08/03 02:52:54;;;;;;;;;8.00;6.25;;;;;-143.39;100.00;63593.47;4908347;29;45395;-83
2021/08/03 02:55:24;;;;;;;;;7.00;7.00;;;;;-143.39;100.00;63593.47;4890799;29;45235;-83
2021/08/03 02:58:02;;;;;;;;;6.75;6.00;;;;;-143.39;100.00;63593.47;4894842;29;45315;-83
2021/08/03 03:00:33;;;;;;;;;7.50;7.00;;;;;-143.39;100.00;63593.47;4886486;29;45550;-83
2021/08/03 03:03:01;;;;;;;;;8.00;8.00;;;;;-143.39;100.00;63593.47;4868305;29;45392;-83
2021/08/03 03:05:29;;;;;;;;;6.50;6.50;;;;;-143.39;100.00;63593.47;4888688;29;45354;-83
2021/08/03 03:08:04;;;;;;;;;9.75;8.75;;;;;-143.39;100.00;63593.47;4889772;29;45218;-84
2021/08/03 03:10:31;;;;;;;;;8.25;7.00;;;;;-143.39;100.00;63593.47;4898857;29;46379;-83
2021/08/03 03:13:02;;;;;;;;;10.00;6.75;;;;;-143.39;100.00;63593.47;4886381;29;45238;-83
2021/08/03 03:15:30;;;;;;;;;12.75;9.00;;;;;-143.39;100.00;63593.47;4888046;29;45305;-83
2021/08/03 03:17:56;;;;;;;;;10.00;8.00;;;;;-143.39;100.00;63593.47;4870694;29;45375;-83
2021/08/03 03:20:23;;;;;;;;;10.25;10.25;;;;;-143.39;100.00;63593.47;4870615;29;47548;-83
2021/08/03 03:22:49;;;;;;;;;10.50;9.50;;;;;-143.39;100.00;63593.47;4887771;29;45552;-83
2021/08/03 03:25:20;;;;;;;;;10.00;8.50;;;;;-143.39;100.00;63593.47;4887513;29;45316;-83
2021/08/03 03:27:49;;;;;;;;;9.00;8.00;;;;;-143.39;100.00;63593.47;4902006;29;45955;-83
2021/08/03 03:30:16;;;;;;;;;10.00;7.00;;;;;-143.39;100.00;63593.47;4872074;29;47531;-83
2021/08/03 03:32:44;;;;;;;;;7.50;7.50;;;;;-143.39;100.00;63593.47;4888218;29;45382;-83
2021/08/03 03:35:10;;;;;;;;;7.00;7.00;;;;;-143.39;100.00;63593.47;4887623;29;45414;-83
2021/08/03 03:37:38;;;;;;;;;8.00;6.50;;;;;-143.39;100.00;63593.47;4887278;29;45222;-83
2021/08/03 03:40:04;;;;;;;;;8.00;6.25;;;;;-143.39;100.00;63593.47;4887154;29;45514;-83
2021/08/03 03:42:31;;;;;;;;;6.00;6.00;;;;;-143.39;100.00;63593.47;4887231;29;45519;-83
2021/08/03 03:44:58;;;;;;;;;2.25;2.25;;;;;-143.39;100.00;63593.47;4870316;29;45437;-83
2021/08/03 03:47:30;;;;;;;;;4.50;4.50;;;;;-143.39;100.00;63593.47;4886958;29;45266;-83
2021/08/03 03:50:09;;;;;;;;;6.00;6.00;;;;;-143.39;100.00;63593.47;4885703;29;48095;-83
2021/08/03 03:52:40;;;;;;;;;7.50;6.00;;;;;-143.39;100.00;63593.47;4888373;29;45423;-83
2021/08/03 03:55:07;;;;;;;;;5.25;5.25;;;;;-143.39;100.00;63593.47;4888758;29;45477;-83
2021/08/03 03:57:35;;;;;;;;;8.00;5.25;;;;;-143.39;100.00;63593.47;4888047;29;45475;-83
2021/08/03 04:00:01;;;;;;;;;5.00;5.00;;;;;-143.39;100.00;63593.47;4887002;29;45242;-83
2021/08/03 04:02:29;;;;;;;;;6.00;6.00;;;;;-143.39;100.00;63593.47;4887104;29;45241;-83
2021/08/03 04:04:59;;;;;;;;;5.25;4.75;;;;;-143.39;100.00;63593.47;4870220;29;45378;-83
2021/08/03 04:07:25;;;;;;;;;9.00;5.25;;;;;-143.39;100.00;63593.47;4887132;29;45255;-83
2021/08/03 04:10:04;;;;;;;;;8.00;7.00;;;;;-143.39;100.00;63593.47;4875065;29;47383;-83
2021/08/03 04:12:29;;;;;;;;;10.50;6.00;;;;;-143.39;100.00;63593.47;4888676;29;45428;-83
2021/08/03 04:14:54;;;;;;;;;10.75;7.75;;;;;-143.39;100.00;63593.47;4886190;29;45349;-82
2021/08/03 04:17:20;;;;;;;;;11.50;8.00;;;;;-143.39;100.00;63593.47;4900577;29;45403;-81
2021/08/03 04:19:45;;;;;;;;;10.75;9.25;;;;;-143.39;100.00;63593.47;4888629;29;47094;-82
2021/08/03 04:22:10;;;;;;;;;12.25;10.00;;;;;-143.39;100.00;63593.47;4905502;29;45407;-82
2021/08/03 04:24:36;;;;;;;;;12.00;10.25;;;;;-143.39;100.00;63593.47;4905486;29;45496;-82
2021/08/03 04:27:02;;;;;;;;;12.50;9.00;;;;;-143.39;100.00;63593.47;4888506;29;45484;-82
2021/08/03 04:29:27;;;;;;;;;8.00;6.75;;;;;-143.39;100.00;63593.47;4888283;29;47227;-82
2021/08/03 04:31:52;;;;;;;;;9.00;7.25;;;;;-143.39;100.00;63593.47;4905806;29;45237;-82
2021/08/03 04:34:18;;;;;;;;;10.00;8.25;;;;;-143.39;100.00;63593.47;4905429;29;45244;-82
2021/08/03 04:36:43;;;;;;;;;6.75;6.00;;;;;-143.39;100.00;63593.47;4889505;29;45893;-81
2021/08/03 04:39:10;;;;;;;;;6.50;5.00;;;;;-143.39;100.00;63593.47;4906456;29;45241;-82
2021/08/03 04:41:37;;;;;;;;;5.50;5.50;;;;;-143.39;100.00;63593.47;4905902;29;45221;-83
2021/08/03 04:44:03;;;;;;;;;9.50;7.75;;;;;-143.39;100.00;63593.47;4905467;29;45276;-82
2021/08/03 04:46:28;;;;;;;;;9.00;7.50;;;;;-143.39;100.00;63593.47;4905244;29;45432;-83
2021/08/03 04:48:53;;;;;;;;;10.00;6.25;;;;;-143.39;100.00;63593.47;4905089;29;46094;-83
2021/08/03 04:51:19;;;;;;;;;6.00;5.25;;;;;-143.39;100.00;63593.47;4888241;29;45290;-82
2021/08/03 04:53:44;;;;;;;;;7.00;5.50;;;;;-143.39;100.00;63593.47;4905100;29;45388;-83
2021/08/03 04:56:09;;;;;;;;;3.25;3.25;;;;;-143.39;100.00;63593.47;4905160;29;45320;-83
2021/08/03 04:58:38;;;;;;;;;8.75;4.00;;;;;-143.39;100.00;63593.47;4887213;29;45457;-83
2021/08/03 05:01:04;;;;;;;;;4.25;3.50;;;;;-143.39;100.00;63593.47;4870906;29;45481;-83
2021/08/03 05:03:29;;;;;;;;;3.00;3.00;;;;;-143.39;100.00;63593.47;4886994;29;45499;-82
2021/08/03 05:05:54;;;;;;;;;3.50;3.50;;;;;-143.39;100.00;63593.47;4885022;29;45237;-83
2021/08/03 05:08:20;;;;;;;;;2.00;2.00;;;;;-143.39;100.00;63593.47;4885715;29;46242;-82
2021/08/03 05:10:45;;;;;;;;;2.50;2.50;;;;;-143.39;100.00;63593.47;4898594;29;45256;-83
2021/08/03 05:13:10;;;;;;;;;2.00;2.00;;;;;-143.39;100.00;63593.47;4900284;29;45252;-83
2021/08/03 05:15:36;;;;;;;;;2.00;2.00;;;;;-143.39;100.00;63593.47;4869354;29;45174;-83
2021/08/03 05:18:01;;;;;;;;;2.50;2.00;;;;;-143.39;100.00;63593.47;4885956;29;46030;-82
2021/08/03 05:20:26;;;;;;;;;1.50;1.50;;;;;-143.39;100.00;63593.47;4886439;29;45221;-82
2021/08/03 05:22:52;;;;;;;;;2.25;2.25;;;;;-143.39;100.00;63593.47;4870925;29;45781;-83
2021/08/03 05:25:17;;;;;;;;;2.00;2.00;;;;;-143.39;100.00;63593.47;4886970;29;45538;-83
2021/08/03 05:27:43;;;;;;;;;2.00;2.00;;;;;-143.39;100.00;63593.47;4884899;29;45665;-82
2021/08/03 05:30:09;;;;;;;;;2.00;2.00;;;;;-143.39;100.00;63593.47;4868740;29;45429;-82
2021/08/03 05:32:35;;;;;;;;;3.25;2.00;;;;;-143.39;100.00;63593.47;4885662;29;45323;-83
2021/08/03 05:35:01;;;;;;;;;2.25;2.00;;;;;-143.39;100.00;63593.47;4885720;29;45364;-83
2021/08/03 05:37:26;;;;;;;;;6.00;2.00;;;;;-143.39;100.00;63593.47;4868539;29;47627;-82
2021/08/03 05:39:53;;;;;;;;;1.00;1.00;;;;;-143.39;100.00;63593.47;4885480;29;45412;-83
2021/08/03 05:42:19;;;;;;;;;1.00;1.00;;;;;-143.39;100.00;63593.47;4885829;29;45280;-82
2021/08/03 05:44:44;;;;;;;;;1.00;1.00;;;;;-143.39;100.00;63593.47;4886668;29;45217;-82
2021/08/03 05:47:09;;;;;;;;;1.00;1.00;;;;;-143.39;100.00;63593.47;4887024;29;46285;-82
2021/08/03 05:49:34;;;;;;;;;2.00;2.00;;;;;-143.39;100.00;63593.47;4885680;29;45246;-82
2021/08/03 05:52:00;;;;;;;;;2.50;2.00;;;;;-143.39;100.00;63593.47;4885621;29;45157;-82
2021/08/03 05:54:26;;;;;;;;;4.25;2.25;;;;;-143.39;100.00;63593.47;4886113;29;45573;-82
2021/08/03 05:56:52;;;;;;;;;5.00;3.00;;;;;-143.39;100.00;63593.47;4894919;29;45467;-82
2021/08/03 05:59:17;;;;;;;;;3.00;3.00;;;;;-143.39;100.00;63593.47;4886080;29;45423;-82
2021/08/03 06:01:43;;;;;;;;;2.00;2.00;;;;;-143.39;100.00;63593.47;4886840;29;45362;-82
2021/08/03 06:04:08;;;;;;;;;3.25;3.00;;;;;-143.39;100.00;63593.47;4886882;29;45511;-82
2021/08/03 06:06:39;;;;;;;;;3.25;3.25;;;;;-143.39;100.00;63593.47;4887666;29;45449;-82
2021/08/03 06:09:09;;;;;;;;;3.75;3.25;;;;;-143.39;100.00;63593.47;4887888;29;45209;-82
2021/08/03 06:11:37;;;;;;;;;5.25;3.50;;;;;-143.39;100.00;63593.47;4894403;29;45353;-82
2021/08/03 06:14:06;;;;;;;;;6.50;5.00;;;;;-143.39;100.00;63593.47;4919234;29;44700;-83
2021/08/03 06:16:32;;;;;;;;;5.75;5.50;;;;;-143.39;100.00;63593.47;4895618;29;45478;-83
2021/08/03 06:19:03;;;;;;;;;3.00;3.00;;;;;-143.39;100.00;63593.47;4875898;29;44859;-83
2021/08/03 06:21:29;;;;;;;;;4.25;4.00;;;;;-143.39;100.00;63593.47;4898671;29;45309;-83
2021/08/03 06:23:56;;;;;;;;;5.00;3.50;;;;;-143.39;100.00;63593.47;4904808;29;45149;-83
2021/08/03 06:26:22;;;;;;;;;3.00;3.00;;;;;-143.39;100.00;63593.47;4887165;29;47184;-83
2021/08/03 06:28:50;;;;;;;;;5.50;4.25;;;;;-143.39;100.00;63593.47;4903700;29;45436;-83
2021/08/03 06:31:16;;;;;;;;;5.50;4.00;;;;;-143.39;100.00;63593.47;4888541;29;45428;-83
2021/08/03 06:33:43;;;;;;;;;4.50;4.25;;;;;-143.39;100.00;63593.47;4903793;29;45537;-83
2021/08/03 06:36:09;;;;;;;;;4.25;4.25;;;;;-143.39;100.00;63593.47;4903781;29;46076;-83
2021/08/03 06:38:34;;;;;;;;;4.50;4.00;;;;;-143.39;100.00;63593.47;4903298;29;45226;-83
2021/08/03 06:41:23;;;;;;;;;6.25;4.00;;;;;-143.39;100.00;63593.47;4903849;29;45289;-83
2021/08/03 06:43:59;;;;;;;;;3.50;2.25;;;;;-143.39;100.00;63593.47;4903597;29;45277;-83
2021/08/03 06:46:28;;;;;;;;;3.50;3.25;;;;;-143.39;100.00;63593.47;4886665;29;47138;-84
2021/08/03 06:49:09;;;;;;;;;3.25;3.25;;;;;-143.39;100.00;63593.47;4903337;29;45241;-84
2021/08/03 06:51:41;;;;;;;;;3.00;3.00;;;;;-143.39;100.00;63593.47;4905040;29;45300;-84
2021/08/03 06:54:08;;;;;;;;;4.00;2.75;;;;;-143.39;100.00;63593.47;4905080;29;45157;-83
2021/08/03 06:56:50;;;;;;;;;3.00;2.00;;;;;-143.39;100.00;63593.47;4901556;29;45523;-83
2021/08/03 06:59:18;;;;;;;;;3.00;2.75;;;;;-143.39;100.00;63593.47;4884661;29;45166;-83
2021/08/03 07:01:44;;;;;;;;;4.00;2.75;;;;;-143.39;100.00;63593.47;4884586;29;45475;-84
2021/08/03 07:04:12;;;;;;;;;1.25;1.00;;;;;-143.39;100.00;63593.47;4884484;29;45341;-83
2021/08/03 07:06:43;;;;;;;;;4.00;3.00;;;;;-143.39;100.00;63593.47;4884386;29;45932;-82
2021/08/03 07:09:09;;;;;;;;;5.25;5.00;;;;;-143.39;100.00;63593.47;4896150;29;45578;-82
2021/08/03 07:11:35;;;;;;;;;5.75;4.00;;;;;-143.39;100.00;63593.47;4893779;29;45375;-83
2021/08/03 07:14:01;;;;;;;;;4.25;4.25;;;;;-143.39;100.00;63593.47;4897819;29;45268;-82
2021/08/03 07:16:28;;;;;;;;;5.00;3.50;;;;;-143.39;100.00;63593.47;4894241;29;44988;-81
2021/08/03 07:18:55;;;;;;;;;5.00;3.00;;;;;-143.39;100.00;63593.47;4887960;29;45467;-82
2021/08/03 07:21:23;;;;;;;;;6.50;3.25;;;;;-143.39;100.00;63593.47;4890117;29;45215;-82
2021/08/03 07:23:51;;;;;;;;;5.00;4.00;;;;;-143.39;100.00;63593.47;4884587;29;45456;-82
2021/08/03 07:26:17;;;;;;;;;3.50;3.00;;;;;-143.39;100.00;63593.47;4868490;29;48371;-82
2021/08/03 07:28:43;;;;;;;;;3.00;3.00;;;;;-143.39;100.00;63593.47;4883674;29;45652;-82
2021/08/03 07:31:08;;;;;;;;;2.00;2.00;;;;;-143.39;100.00;63593.47;4868341;29;45429;-82
2021/08/03 07:33:33;;;;;;;;;2.75;2.75;;;;;-143.39;100.00;63593.47;4884864;29;45314;-82
2021/08/03 07:35:59;;;;;;;;;4.25;3.00;;;;;-143.39;100.00;63593.47;4869213;29;47478;-82
2021/08/03 07:38:24;;;;;;;;;9.75;4.50;;;;;-143.39;100.00;63593.47;4886736;29;45263;-82
2021/08/03 07:40:49;;;;;;;;;5.00;5.00;;;;;-143.39;100.00;63593.47;4887878;29;45221;-82
2021/08/03 07:43:15;;;;;;;;;4.25;4.00;;;;;-143.39;100.00;63593.47;4884575;29;45776;-82
2021/08/03 07:45:40;;;;;;;;;7.00;4.75;;;;;-143.39;100.00;63593.47;4884792;29;45401;-82
2021/08/03 07:48:08;;;;;;;;;4.00;3.50;;;;;-143.39;100.00;63593.47;4896430;29;45335;-82
2021/08/03 07:50:34;;;;;;;;;5.50;4.00;;;;;-143.39;100.00;63593.47;4886932;29;45321;-83
2021/08/03 07:53:00;;;;;;;;;5.25;5.25;;;;;-143.39;100.00;63593.47;4887611;29;45309;-82
2021/08/03 07:55:25;;;;;;;;;3.00;3.00;;;;;-143.39;100.00;63593.47;4888372;29;45436;-82
2021/08/03 07:57:50;;;;;;;;;4.25;4.25;;;;;-143.39;100.00;63593.47;4893882;29;45366;-83
2021/08/03 08:00:16;;;;;;;;;6.00;4.00;;;;;-143.39;100.00;63593.47;4889135;29;45375;-82
2021/08/03 08:02:41;;;;;;;;;3.75;3.75;;;;;-143.39;100.00;63593.47;4891139;29;45518;-83
2021/08/03 08:05:07;;;;;;;;;5.50;2.75;;;;;-143.39;100.00;63593.47;4889484;29;45957;-83
2021/08/03 08:07:32;;;;;;;;;5.00;3.50;;;;;-143.39;100.00;63593.47;4890798;29;45289;-83
2021/08/03 08:09:58;;;;;;;;;4.75;3.25;;;;;-143.39;100.00;63593.47;4880886;29;45270;-83
2021/08/03 08:12:23;;;;;;;;;3.50;3.00;;;;;-143.39;100.00;63593.47;4910780;29;45160;-83
2021/08/03 08:14:48;;;;;;;;;4.00;4.00;;;;;-143.39;100.00;63593.47;4910684;29;45241;-82
2021/08/03 08:17:14;;;;;;;;;2.00;2.00;;;;;-143.39;100.00;63593.47;4910277;29;45165;-82
2021/08/03 08:19:40;;;;;;;;;3.00;3.00;;;;;-143.39;100.00;63593.47;4908893;29;45401;-82
2021/08/03 08:22:05;;;;;;;;;7.00;3.00;;;;;-143.39;100.00;63593.47;4907916;29;45516;-82
2021/08/03 08:24:30;;;;;;;;;4.25;4.00;;;;;-143.39;100.00;63593.47;4906971;29;45327;-82
2021/08/03 08:26:56;;;;;;;;;5.50;4.00;;;;;-143.39;100.00;63593.47;4906991;29;45431;-82
2021/08/03 08:29:21;;;;;;;;;4.25;2.25;;;;;-143.39;100.00;63593.47;4906474;29;45242;-82
2021/08/03 08:31:47;;;;;;;;;1.75;1.75;;;;;-143.39;100.00;63593.47;4889595;29;45235;-82
2021/08/03 08:34:13;;;;;;;;;3.50;3.00;;;;;-143.39;100.00;63593.47;4906224;29;45377;-82
2021/08/03 08:36:38;;;;;;;;;3.00;3.00;;;;;-143.39;100.00;63593.47;4906114;29;45336;-82
2021/08/03 08:39:05;;;;;;;;;4.00;4.00;;;;;-143.39;100.00;63593.47;4905981;29;45390;-83
2021/08/03 08:41:33;;;;;;;;;2.50;2.50;;;;;-143.39;100.00;63593.47;4906056;29;44767;-83
2021/08/03 08:44:02;;;;;;;;;2.75;2.75;;;;;-143.39;100.00;63593.47;4889652;29;46315;-83
2021/08/03 08:46:34;;;;;;;;;6.00;3.75;;;;;-143.39;100.00;63593.47;4906866;29;45471;-83
2021/08/03 08:49:02;;;;;;;;;6.00;3.75;;;;;-143.39;100.00;63593.47;4906015;29;45276;-83
2021/08/03 08:51:29;;;;;;;;;5.75;4.00;;;;;-143.39;100.00;63593.47;4905849;29;45506;-83
2021/08/03 08:53:55;;;;;;;;;4.25;2.50;;;;;-143.39;100.00;63593.47;4906008;29;46080;-83
2021/08/03 08:56:21;;;;;;;;;2.50;2.00;;;;;-143.39;100.00;63593.47;4901631;29;45391;-83
2021/08/03 08:58:46;;;;;;;;;2.50;2.50;;;;;-143.39;100.00;63593.47;4887276;29;45293;-83
2021/08/03 09:01:11;;;;;;;;;3.50;2.75;;;;;-143.39;100.00;63593.47;4899806;29;45525;-83
2021/08/03 09:03:37;;;;;;;;;2.00;2.00;;;;;-143.39;100.00;63593.47;4869673;29;48109;-83
2021/08/03 09:06:05;;;;;;;;;2.25;2.00;;;;;-143.39;100.00;63593.47;4887191;29;45390;-83
2021/08/03 09:08:44;;;;;;;;;4.00;4.00;;;;;-143.39;100.00;63593.47;4887021;29;45281;-83
2021/08/03 09:11:14;;;;;;;;;3.50;3.50;;;;;-143.39;100.00;63593.47;4884701;29;45555;-83
2021/08/03 09:14:00;;;;;;;;;6.50;3.00;;;;;-143.39;100.00;63593.47;4896145;29;45361;-83
2021/08/03 09:16:41;;;;;;;;;4.00;3.00;;;;;-143.39;100.00;63593.47;4900536;29;45369;-83
2021/08/03 09:19:07;;;;;;;;;5.00;3.00;;;;;-143.39;100.00;63593.47;4886055;29;45268;-83
2021/08/03 09:21:32;;;;;;;;;6.00;3.25;;;;;-143.39;100.00;63593.47;4885979;29;45657;-83
2021/08/03 09:24:01;;;;;;;;;3.75;3.00;;;;;-143.39;100.00;63593.47;4885660;29;45681;-83
2021/08/03 09:26:46;;;;;;;;;2.00;1.00;;;;;-143.39;100.00;63593.47;4886077;29;45403;-83
2021/08/03 09:29:13;;;;;;;;;7.00;2.25;;;;;-143.39;100.00;63593.47;4887006;29;45471;-83
2021/08/03 09:31:40;;;;;;;;;2.00;1.00;;;;;-143.39;100.00;63593.47;4885605;29;45641;-84
2021/08/03 09:34:13;;;;;;;;;4.75;2.25;;;;;-143.39;100.00;63593.47;4885636;29;46441;-84
2021/08/03 09:36:51;;;;;;;;;3.25;1.00;;;;;-143.39;100.00;63593.47;4885908;29;45467;-84
2021/08/03 09:39:36;;;;;;;;;1.25;1.25;;;;;-143.39;100.00;63593.47;4885409;29;45342;-84
2021/08/03 09:42:05;;;;;;;;;2.00;1.50;;;;;-143.39;100.00;63593.47;4885386;29;45472;-84
2021/08/03 09:44:31;;;;;;;;;2.75;2.75;;;;;-143.39;100.00;63593.47;4868875;29;47303;-84
2021/08/03 09:46:57;;;;;;;;;2.00;2.00;;;;;-143.39;100.00;63593.47;4885536;29;45162;-84
2021/08/03 09:49:43;;;;;;;;;3.75;2.75;;;;;-143.39;100.00;63593.47;4886273;29;45304;-83
2021/08/03 09:52:12;;;;;;;;;2.00;2.00;;;;;-143.39;100.00;63593.47;4888424;29;45491;-84
2021/08/03 09:54:39;;;;;;;;;1.50;1.50;;;;;-143.39;100.00;63593.47;4886154;29;46842;-84
2021/08/03 09:57:18;;;;;;;;;2.00;2.00;;;;;-143.39;100.00;63593.47;4893732;29;45340;-84
2021/08/03 09:59:43;;;;;;;;;2.00;2.00;;;;;-143.39;100.00;63593.47;4885651;29;45371;-84
2021/08/03 10:02:15;;;;;;;;;4.25;3.50;;;;;-143.39;100.00;63593.47;4885398;29;45314;-83
2021/08/03 10:04:42;;;;;;;;;3.50;3.50;;;;;-143.39;100.00;63593.47;4885159;29;45362;-83
2021/08/03 10:07:08;;;;;;;;;7.50;5.00;;;;;-143.39;100.00;63593.47;4885365;29;45451;-83
2021/08/03 10:09:35;;;;;;;;;7.00;3.75;;;;;-143.39;100.00;63593.47;4886963;29;45405;-83
2021/08/03 10:12:00;;;;;;;;;4.00;4.00;;;;;-143.39;100.00;63593.47;4904043;29;45312;-83
2021/08/03 10:14:26;;;;;;;;;5.50;5.00;;;;;-143.39;100.00;63593.47;4875778;29;47199;-83
2021/08/03 10:16:53;;;;;;;;;6.00;6.00;;;;;-143.39;100.00;63593.47;4885574;29;45245;-83
2021/08/03 10:19:30;;;;;;;;;7.75;6.00;;;;;-143.39;100.00;63593.47;4868162;29;45329;-83
2021/08/03 10:21:59;;;;;;;;;7.75;7.50;;;;;-143.39;100.00;63593.47;4885274;29;45260;-83
2021/08/03 10:24:30;;;;;;;;;7.75;6.00;;;;;-143.39;100.00;63593.47;4884758;29;45495;-83
2021/08/03 10:27:10;;;;;;;;;4.00;4.00;;;;;-143.39;100.00;63593.47;4885196;29;45225;-83
2021/08/03 10:29:46;;;;;;;;;4.25;4.25;;;;;-143.39;100.00;63593.47;4890384;29;45339;-83
2021/08/03 10:32:46;;;;;;;;;5.00;4.00;;;;;-143.39;100.00;63593.47;4886921;29;45740;-83
2021/08/03 10:35:16;;;;;;;;;5.50;5.00;;;;;-143.39;100.00;63593.47;4887952;29;47371;-83
2021/08/03 10:37:57;;;;;;;;;5.00;5.00;;;;;-143.39;100.00;63593.47;4904440;29;45570;-83
2021/08/03 10:40:56;;;;;;;;;6.25;4.75;;;;;-143.39;100.00;63593.47;4904417;29;45213;-83
2021/08/03 10:43:24;;;;;;;;;3.00;3.00;;;;;-143.39;100.00;63593.47;4862381;29;45282;-83
2021/08/03 10:46:08;;;;;;;;;3.50;3.50;;;;;-143.39;100.00;63593.47;4897481;29;45511;-83
2021/08/03 10:48:39;;;;;;;;;3.00;3.00;;;;;-143.39;100.00;63593.47;4885381;29;45212;-83
2021/08/03 10:51:16;;;;;;;;;4.00;4.00;;;;;-143.39;100.00;63593.47;4886212;29;45364;-83
2021/08/03 10:53:51;;;;;;;;;4.00;4.00;;;;;-143.39;100.00;63593.47;4887647;29;45354;-83
2021/08/03 10:56:17;;;;;;;;;7.25;6.00;;;;;-143.39;100.00;63593.47;4897460;29;45384;-83
2021/08/03 10:58:42;;;;;;;;;3.00;3.00;;;;;-143.39;100.00;63593.47;4890627;29;45454;-83
2021/08/03 11:01:08;;;;;;;;;6.00;4.00;;;;;-143.39;100.00;63593.47;4890561;29;45207;-83
2021/08/03 11:06:10;;;;;;;;;5.00;4.25;;;;;-143.39;100.00;63593.47;4896444;29;46098;-83
2021/08/03 11:08:43;;;;;;;;;5.00;5.00;;;;;-143.39;100.00;63593.47;4872053;29;45228;-83
2021/08/03 11:11:17;;;;;;;;;4.25;3.75;;;;;-143.39;100.00;63593.47;4903975;29;45228;-82
2021/08/03 11:14:06;;;;;;;;;4.00;4.00;;;;;-143.39;100.00;63593.47;4895137;29;45225;-83
2021/08/03 11:16:32;;;;;;;;;6.75;5.75;;;;;-143.39;100.00;63593.47;4885719;29;46524;-83
2021/08/03 11:19:03;;;;;;;;;5.75;5.75;;;;;-143.39;100.00;63593.47;4886243;29;45365;-83